Time;durP1;ratioP1;P1;durP2;ratioP2;P2;SDS_P1;SDS_P2;PMS_P1;PMS_P2;Temp;Humidity;BMP_temperature;BMP_pressure;BME280_temperature;BME280_humidity;BME280_pressure;Samples;Min_cycle;Max_cycle;Signal;HPM_P1;HPM_P2
2022/02/18 00:00:28;;;;;;;51.28;30.27;;;;;;;5.66;73.43;99205.88;5049783;28;20478;-21
2022/02/18 00:02:54;;;;;;;56.67;31.70;;;;;;;5.57;74.63;99224.63;5049729;28;20029;-21
2022/02/18 00:05:19;;;;;;;57.70;30.52;;;;;;;5.52;75.21;99240.31;5031389;28;20032;-21
2022/02/18 00:07:45;;;;;;;59.30;33.47;;;;;;;5.68;75.51;99214.44;5049524;28;20025;-21
2022/02/18 00:10:11;;;;;;;61.15;33.70;;;;;;;5.43;76.42;99210.63;5049656;28;20503;-21
2022/02/18 00:12:36;;;;;;;59.33;35.70;;;;;;;5.72;75.58;99197.13;5049380;28;20032;-21
2022/02/18 00:15:03;;;;;;;62.30;34.30;;;;;;;6.25;74.40;99218.09;5049378;28;20095;-22
2022/02/18 00:17:28;;;;;;;64.78;34.60;;;;;;;6.32;73.08;99189.78;5049351;28;20028;-21
2022/02/18 00:19:54;;;;;;;62.35;33.05;;;;;;;6.55;73.15;99223.66;5049492;28;20082;-21
2022/02/18 00:22:19;;;;;;;67.95;36.20;;;;;;;6.51;73.80;99226.94;5049601;28;20220;-21
2022/02/18 00:24:46;;;;;;;68.03;35.72;;;;;;;6.60;72.39;99225.69;5049184;28;20040;-21
2022/02/18 00:27:11;;;;;;;65.10;35.47;;;;;;;6.31;73.97;99230.50;5049291;28;20060;-22
2022/02/18 00:29:37;;;;;;;56.70;33.13;;;;;;;5.95;74.65;99200.13;5049409;28;20108;-21
2022/02/18 00:32:07;;;;;;;62.28;34.03;;;;;;;6.30;74.50;99226.25;5049001;28;20489;-22
2022/02/18 00:34:33;;;;;;;60.70;35.28;;;;;;;6.32;74.14;99248.03;5063555;28;20024;-21
2022/02/18 00:36:59;;;;;;;58.22;34.33;;;;;;;6.61;73.77;99253.78;5064450;28;20063;-21
2022/02/18 00:39:24;;;;;;;66.28;34.75;;;;;;;6.22;75.14;99250.31;5049223;28;20059;-21
2022/02/18 00:41:50;;;;;;;66.28;36.00;;;;;;;6.54;73.77;99231.81;5049019;28;20033;-21
2022/02/18 00:44:15;;;;;;;61.35;35.80;;;;;;;6.37;74.45;99261.44;5048954;28;20044;-22
2022/02/18 00:46:41;;;;;;;61.58;33.83;;;;;;;6.52;73.81;99228.56;5048660;28;20032;-21
2022/02/18 00:49:06;;;;;;;58.47;32.95;;;;;;;6.90;72.34;99239.13;5049176;28;20029;-21
2022/02/18 00:51:32;;;;;;;63.72;34.50;;;;;;;7.03;70.30;99227.63;5049054;28;20033;-21
2022/02/18 00:53:57;;;;;;;56.78;34.80;;;;;;;6.59;72.49;99255.84;5048825;28;20039;-20
2022/02/18 00:56:22;;;;;;;59.65;34.38;;;;;;;6.54;73.37;99260.94;5048966;28;20035;-21
2022/02/18 00:58:48;;;;;;;55.80;33.70;;;;;;;6.91;72.26;99239.94;5048223;28;20047;-21
2022/02/18 01:01:13;;;;;;;58.97;34.90;;;;;;;7.08;71.05;99241.03;5048474;28;20065;-21
2022/02/18 01:03:39;;;;;;;59.33;34.38;;;;;;;7.22;70.65;99247.03;5048440;28;20033;-21
2022/02/18 01:06:04;;;;;;;57.22;33.55;;;;;;;7.36;70.35;99229.19;5048452;28;20041;-20
2022/02/18 01:08:30;;;;;;;56.78;33.28;;;;;;;7.40;69.85;99248.94;5048336;28;20056;-21
2022/02/18 01:10:55;;;;;;;55.85;32.35;;;;;;;7.11;70.33;99239.78;5048296;28;20025;-21
2022/02/18 01:13:21;;;;;;;57.38;31.52;;;;;;;7.10;69.72;99212.47;5048737;28;20095;-21
2022/02/18 01:15:46;;;;;;;57.63;32.70;;;;;;;7.20;69.21;99218.06;5048320;28;20788;-21
2022/02/18 01:18:12;;;;;;;54.60;31.15;;;;;;;7.55;68.21;99241.44;5048107;28;20716;-21
2022/02/18 01:20:37;;;;;;;65.00;34.83;;;;;;;7.54;67.67;99233.69;5047434;28;20408;-21
2022/02/18 01:23:03;;;;;;;66.68;37.22;;;;;;;7.43;68.34;99214.78;5048796;28;20092;-21
2022/02/18 01:25:29;;;;;;;70.03;36.42;;;;;;;7.64;67.85;99229.50;5048259;28;20056;-21
2022/02/18 01:27:57;;;;;;;64.43;35.95;;;;;;;7.33;68.73;99222.44;5048011;28;20060;-21
2022/02/18 01:30:24;;;;;;;70.47;37.47;;;;;;;7.51;68.47;99229.63;5047971;28;20059;-21
2022/02/18 01:32:49;;;;;;;55.15;31.75;;;;;;;7.76;67.13;99226.91;5047854;28;20041;-21
2022/02/18 01:35:17;;;;;;;53.28;30.58;;;;;;;7.62;67.64;99238.69;5048094;28;20055;-22
2022/02/18 01:37:48;;;;;;;59.95;31.70;;;;;;;7.74;66.81;99244.09;5047848;28;20033;-21
2022/02/18 01:40:14;;;;;;;52.67;30.55;;;;;;;7.50;67.81;99227.19;5048023;28;20040;-21
2022/02/18 01:42:41;;;;;;;60.45;32.13;;;;;;;7.57;67.40;99239.38;5047569;28;20037;-21
2022/02/18 01:45:06;;;;;;;71.70;40.65;;;;;;;7.43;68.20;99233.38;5047626;28;20412;-21
2022/02/18 01:47:32;;;;;;;52.90;32.28;;;;;;;7.38;68.98;99240.38;5048083;28;20496;-21
2022/02/18 01:50:00;;;;;;;48.90;28.35;;;;;;;7.35;68.97;99243.44;5047900;28;20547;-21
2022/02/18 01:52:27;;;;;;;44.85;26.58;;;;;;;7.67;67.56;99261.94;5047649;28;20028;-21
2022/02/18 01:54:53;;;;;;;39.35;23.63;;;;;;;7.34;68.73;99244.50;5047602;28;20033;-22
2022/02/18 01:57:18;;;;;;;38.83;21.40;;;;;;;7.31;68.53;99239.63;5047733;28;20530;-21
2022/02/18 01:59:44;;;;;;;38.90;21.58;;;;;;;7.52;67.84;99241.03;5047418;28;20056;-22
2022/02/18 02:02:09;;;;;;;35.30;20.65;;;;;;;7.48;68.13;99240.69;5047759;28;20045;-21
2022/02/18 02:04:35;;;;;;;30.60;18.55;;;;;;;7.68;67.57;99239.66;5047313;28;20192;-21
2022/02/18 02:07:05;;;;;;;30.40;16.38;;;;;;;7.64;68.26;99240.13;5047782;28;20535;-21
2022/02/18 02:09:30;;;;;;;28.38;15.50;;;;;;;7.73;67.61;99237.19;5047507;28;20059;-21
2022/02/18 02:11:56;;;;;;;26.17;15.02;;;;;;;7.81;67.58;99256.28;5047638;28;20481;-21
2022/02/18 02:14:21;;;;;;;25.25;13.18;;;;;;;7.97;67.33;99265.50;5047450;28;20041;-21
2022/02/18 02:16:47;;;;;;;25.50;12.88;;;;;;;7.95;67.07;99264.91;5029117;28;20032;-21
2022/02/18 02:19:12;;;;;;;19.00;9.70;;;;;;;7.92;67.24;99249.41;5047473;28;20044;-21
2022/02/18 02:21:38;;;;;;;15.50;8.18;;;;;;;8.22;66.66;99264.59;5047493;28;20029;-21
2022/02/18 02:24:03;;;;;;;13.88;7.68;;;;;;;8.38;65.49;99264.00;5047459;28;20091;-21
2022/02/18 02:26:29;;;;;;;13.40;6.90;;;;;;;8.53;65.15;99284.88;5047131;28;20036;-21
2022/02/18 02:28:55;;;;;;;10.10;6.97;;;;;;;8.68;64.62;99275.69;5047149;28;20029;-21
2022/02/18 02:31:24;;;;;;;12.27;7.22;;;;;;;8.74;64.52;99270.28;5032177;28;20110;-21
2022/02/18 02:33:50;;;;;;;14.13;7.45;;;;;;;8.66;64.87;99275.91;5066869;28;20048;-21
2022/02/18 02:36:15;;;;;;;13.57;7.90;;;;;;;8.78;64.25;99284.72;5066637;28;20028;-21
2022/02/18 02:38:41;;;;;;;15.95;8.45;;;;;;;8.74;64.47;99280.91;5016575;28;20044;-22
2022/02/18 02:41:06;;;;;;;12.35;6.65;;;;;;;8.50;65.18;99280.03;5051226;28;20546;-21
2022/02/18 02:43:32;;;;;;;9.05;5.15;;;;;;;8.58;64.78;99282.38;5033004;28;20048;-20
2022/02/18 02:45:57;;;;;;;8.23;4.55;;;;;;;8.84;63.77;99293.66;5051556;28;20029;-21
2022/02/18 02:48:23;;;;;;;8.88;4.60;;;;;;;9.05;63.42;99302.97;5033046;28;20029;-21
2022/02/18 02:50:48;;;;;;;10.85;4.97;;;;;;;9.11;62.39;99280.78;5050998;28;20036;-21
2022/02/18 02:53:14;;;;;;;10.02;5.35;;;;;;;9.51;61.92;99306.75;5033067;28;20036;-21
2022/02/18 02:55:39;;;;;;;8.95;5.00;;;;;;;9.58;60.60;99291.50;5050946;28;20025;-22
2022/02/18 02:58:04;;;;;;;11.23;5.38;;;;;;;9.64;61.11;99311.88;5050705;28;20500;-21
2022/02/18 03:00:30;;;;;;;9.48;5.45;;;;;;;9.64;60.52;99325.19;5050474;28;20052;-21
2022/02/18 03:02:55;;;;;;;10.60;4.68;;;;;;;9.78;60.40;99331.06;5066337;28;20120;-21
2022/02/18 03:05:21;;;;;;;13.07;5.07;;;;;;;9.75;60.35;99350.19;5050766;28;20515;-21
2022/02/18 03:07:46;;;;;;;11.75;5.43;;;;;;;9.85;60.14;99349.63;5050812;28;20086;-21
2022/02/18 03:10:12;;;;;;;11.23;4.40;;;;;;;9.82;59.57;99355.38;5050637;28;20095;-21
2022/02/18 03:12:38;;;;;;;10.27;4.35;;;;;;;9.87;59.84;99358.19;5050352;28;20132;-21
2022/02/18 03:15:05;;;;;;;8.73;4.90;;;;;;;9.83;59.69;99365.00;5050680;28;20052;-21
2022/02/18 03:17:31;;;;;;;9.20;4.35;;;;;;;9.85;59.37;99390.38;5050739;28;20020;-21
2022/02/18 03:19:56;;;;;;;8.63;4.00;;;;;;;9.77;59.09;99373.91;5050797;28;20116;-21
2022/02/18 03:22:22;;;;;;;9.43;4.45;;;;;;;9.91;59.44;99399.28;5050501;28;20028;-20
2022/02/18 03:24:48;;;;;;;7.93;3.67;;;;;;;9.99;59.05;99414.94;5050184;28;20037;-21
2022/02/18 03:27:13;;;;;;;8.00;4.63;;;;;;;10.06;58.44;99414.81;5050205;28;20522;-20
2022/02/18 03:29:39;;;;;;;12.32;4.82;;;;;;;10.06;58.67;99418.28;5050718;28;20033;-21
2022/02/18 03:32:04;;;;;;;8.32;4.50;;;;;;;10.32;57.56;99429.56;5050257;28;20071;-20
2022/02/18 03:34:31;;;;;;;8.38;4.30;;;;;;;10.30;57.21;99426.31;5050202;28;20021;-21
2022/02/18 03:36:56;;;;;;;8.82;4.43;;;;;;;10.33;56.67;99433.03;5049876;28;20415;-22
2022/02/18 03:39:22;;;;;;;5.90;3.22;;;;;;;10.47;55.79;99429.06;5050181;28;20025;-21
2022/02/18 03:41:47;;;;;;;6.68;3.85;;;;;;;10.45;54.94;99418.63;5049261;28;20120;-20
2022/02/18 03:44:12;;;;;;;7.20;2.90;;;;;;;10.39;54.82;99440.88;5050265;28;20467;-20
2022/02/18 03:46:38;;;;;;;6.70;3.30;;;;;;;10.41;55.59;99446.00;5049994;28;20025;-21
2022/02/18 03:49:03;;;;;;;5.35;2.60;;;;;;;10.29;54.69;99466.47;5050118;28;20047;-21
2022/02/18 03:51:29;;;;;;;6.32;2.40;;;;;;;10.35;53.69;99470.91;5050030;28;20485;-21
2022/02/18 03:53:54;;;;;;;6.57;2.63;;;;;;;10.38;52.98;99479.25;5049852;28;20129;-20
2022/02/18 03:56:20;;;;;;;6.50;2.22;;;;;;;10.43;52.20;99494.56;5049658;28;20025;-20
2022/02/18 03:58:45;;;;;;;3.90;1.88;;;;;;;10.51;51.03;99490.75;5049729;28;20033;-21
2022/02/18 04:01:11;;;;;;;4.72;1.63;;;;;;;10.44;50.62;99461.50;5049604;28;20067;-20
2022/02/18 04:03:37;;;;;;;5.28;1.40;;;;;;;10.51;50.06;99490.75;5049608;28;20079;-20
2022/02/18 04:06:03;;;;;;;6.43;1.48;;;;;;;10.59;50.34;99514.38;5049524;28;20044;-20
2022/02/18 04:08:28;;;;;;;4.00;1.30;;;;;;;10.45;49.68;99482.63;5049513;28;20044;-21
2022/02/18 04:10:53;;;;;;;11.57;2.55;;;;;;;10.55;49.81;99491.91;5049371;28;20032;-21
2022/02/18 04:13:19;;;;;;;6.07;2.67;;;;;;;10.57;49.60;99505.81;5049760;28;20040;-20
2022/02/18 04:15:44;;;;;;;4.72;2.38;;;;;;;10.57;49.21;99513.81;5049581;28;20029;-21
2022/02/18 04:18:10;;;;;;;4.60;1.10;;;;;;;10.51;49.79;99498.75;5049937;28;20037;-20
2022/02/18 04:20:35;;;;;;;6.05;1.30;;;;;;;10.51;50.33;99512.88;5049388;28;20021;-21
2022/02/18 04:23:01;;;;;;;7.53;1.13;;;;;;;10.50;50.02;99521.09;5049230;28;20037;-20
2022/02/18 04:25:26;;;;;;;5.50;1.10;;;;;;;10.69;48.55;99561.81;5064515;28;20052;-20
2022/02/18 04:27:57;;;;;;;5.35;1.75;;;;;;;10.69;48.73;99561.81;5049304;28;20123;-21
2022/02/18 04:30:23;;;;;;;5.10;0.98;;;;;;;10.72;48.96;99567.47;5048861;28;20504;-20
2022/02/18 04:32:49;;;;;;;1.90;0.50;;;;;;;10.72;47.75;99575.47;5047460;28;20071;-20
2022/02/18 04:35:14;;;;;;;0.63;0.30;;;;;;;10.72;47.50;99575.47;5031371;28;20217;-20
2022/02/18 04:37:40;;;;;;;0.43;0.20;;;;;;;10.76;47.06;99573.97;5049146;28;20040;-20
2022/02/18 04:40:06;;;;;;;2.15;0.30;;;;;;;10.78;46.68;99579.88;5049033;28;20028;-20
2022/02/18 04:42:32;;;;;;;2.22;0.20;;;;;;;10.78;46.94;99593.22;5048775;28;20111;-20
2022/02/18 04:44:57;;;;;;;1.77;0.30;;;;;;;10.79;46.39;99594.84;5049073;28;20028;-21
2022/02/18 04:47:22;;;;;;;1.85;0.30;;;;;;;10.55;46.41;99572.69;5049083;28;20037;-20
2022/02/18 04:49:48;;;;;;;0.47;0.25;;;;;;;10.59;46.68;99595.19;5049287;28;20032;-20
2022/02/18 04:52:14;;;;;;;1.67;0.35;;;;;;;10.36;46.35;99585.31;5048946;28;20028;-21
2022/02/18 04:54:40;;;;;;;1.13;0.22;;;;;;;10.45;46.57;99615.91;5047260;28;20468;-21
2022/02/18 04:57:05;;;;;;;1.55;0.30;;;;;;;10.35;45.86;99607.66;5048780;28;20041;-21
2022/02/18 04:59:31;;;;;;;7.32;0.50;;;;;;;10.27;46.37;99618.59;5048306;28;20543;-20
2022/02/18 05:01:57;;;;;;;0.43;0.20;;;;;;;10.19;46.17;99627.72;5048678;28;20041;-20
2022/02/18 05:04:23;;;;;;;2.95;0.47;;;;;;;10.18;44.95;99646.63;5048489;28;20040;-21
2022/02/18 05:06:49;;;;;;;0.73;0.30;;;;;;;9.97;44.98;99635.44;5048189;28;20083;-20
2022/02/18 05:09:14;;;;;;;1.85;0.32;;;;;;;10.06;43.59;99659.91;5048461;28;20415;-20
2022/02/18 05:11:40;;;;;;;0.77;0.30;;;;;;;10.08;44.40;99651.69;5048603;28;20032;-21
2022/02/18 05:14:05;;;;;;;2.05;0.20;;;;;;;9.90;44.04;99655.19;5048508;28;20037;-21
2022/02/18 05:16:30;;;;;;;2.65;0.40;;;;;;;10.09;43.29;99679.94;5048083;28;20497;-20
2022/02/18 05:18:56;;;;;;;0.73;0.28;;;;;;;10.11;42.52;99693.84;5048269;28;20075;-21
2022/02/18 05:21:22;;;;;;;1.92;0.28;;;;;;;10.13;42.09;99713.09;5048098;28;20032;-20
2022/02/18 05:23:48;;;;;;;0.63;0.22;;;;;;;10.08;40.71;99681.00;5063405;28;20527;-21
2022/02/18 05:26:13;;;;;;;0.30;0.20;;;;;;;10.30;38.99;99698.16;5048345;28;20033;-20
2022/02/18 05:28:39;;;;;;;1.23;0.25;;;;;;;10.53;37.50;99733.94;5048070;28;20484;-20
2022/02/18 05:31:04;;;;;;;2.40;0.73;;;;;;;10.53;40.26;99732.06;5048368;28;20029;-21
2022/02/18 05:33:29;;;;;;;5.20;1.17;;;;;;;10.47;42.17;99713.50;5048108;28;20041;-21
2022/02/18 05:35:55;;;;;;;2.40;0.52;;;;;;;10.30;42.65;99708.81;5048194;28;20029;-20
2022/02/18 05:38:20;;;;;;;3.88;1.10;;;;;;;10.21;43.14;99697.59;5047841;28;20033;-21
2022/02/18 05:40:46;;;;;;;1.65;0.98;;;;;;;10.10;46.31;99710.91;5047610;28;20029;-20
2022/02/18 05:43:11;;;;;;;1.92;0.80;;;;;;;9.96;47.86;99719.03;5047848;28;20044;-21
2022/02/18 05:45:37;;;;;;;2.58;1.45;;;;;;;9.68;48.46;99727.53;5048123;28;20106;-21
2022/02/18 05:48:02;;;;;;;2.80;1.35;;;;;;;9.49;47.83;99708.09;5048272;28;20063;-21
2022/02/18 05:50:28;;;;;;;1.73;0.80;;;;;;;9.36;47.60;99702.91;5047742;28;20511;-21
2022/02/18 05:52:53;;;;;;;2.25;0.73;;;;;;;9.33;47.27;99729.94;5048156;28;20403;-21
2022/02/18 05:55:19;;;;;;;2.05;0.50;;;;;;;9.36;46.77;99740.97;5047599;28;20032;-21
2022/02/18 05:57:44;;;;;;;2.70;0.90;;;;;;;9.40;46.22;99736.84;5047981;28;20631;-21
2022/02/18 06:00:10;;;;;;;1.88;0.30;;;;;;;9.58;45.77;99754.69;5047763;28;20075;-21
2022/02/18 06:02:36;;;;;;;3.10;1.20;;;;;;;9.54;45.32;99763.31;5047502;28;20029;-21
2022/02/18 06:05:03;;;;;;;2.00;0.82;;;;;;;9.64;45.84;99756.47;5047068;28;20043;-22
2022/02/18 06:07:29;;;;;;;4.20;0.82;;;;;;;9.63;47.53;99770.81;5047510;28;20039;-21
2022/02/18 06:09:54;;;;;;;1.90;0.70;;;;;;;9.74;48.63;99766.59;5047376;28;20376;-21
2022/02/18 06:12:20;;;;;;;2.03;1.00;;;;;;;9.61;50.20;99770.22;5047702;28;20506;-21
2022/02/18 06:14:50;;;;;;;4.35;1.00;;;;;;;9.61;51.07;99767.56;5047342;28;20036;-21
2022/02/18 06:17:24;;;;;;;4.75;1.10;;;;;;;9.50;50.90;99767.44;5030170;28;20492;-21
2022/02/18 06:19:50;;;;;;;2.72;0.95;;;;;;;9.69;50.80;99786.97;5047470;28;20029;-20
2022/02/18 06:22:15;;;;;;;6.82;1.15;;;;;;;9.78;50.15;99796.28;5047123;28;20040;-21
2022/02/18 06:24:41;;;;;;;4.35;1.30;;;;;;;9.77;49.62;99789.34;5047388;28;20036;-21
2022/02/18 06:27:07;;;;;;;6.18;1.50;;;;;;;9.79;48.92;99782.75;5047715;28;20037;-21
2022/02/18 06:29:32;;;;;;;3.22;1.30;;;;;;;9.82;48.65;99806.25;5047413;28;20041;-21
2022/02/18 06:31:58;;;;;;;4.65;1.60;;;;;;;9.86;48.90;99788.00;5046961;28;20033;-21
2022/02/18 06:34:24;;;;;;;3.25;1.33;;;;;;;9.91;47.63;99809.47;5047551;28;20041;-22
2022/02/18 06:36:52;;;;;;;1.35;0.95;;;;;;;10.03;47.12;99821.03;5047260;28;20079;-21
2022/02/18 06:39:19;;;;;;;1.52;1.08;;;;;;;10.11;47.22;99805.75;5047424;28;20043;-21
2022/02/18 06:41:46;;;;;;;5.22;1.00;;;;;;;10.05;45.63;99792.31;5046027;28;20043;-22
2022/02/18 06:44:11;;;;;;;2.38;1.23;;;;;;;10.21;45.96;99827.38;5047258;28;20098;-22
2022/02/18 06:46:37;;;;;;;1.25;0.60;;;;;;;10.31;45.63;99819.72;5046715;28;20454;-21
2022/02/18 06:49:02;;;;;;;4.18;1.73;;;;;;;10.28;45.85;99806.81;5047119;28;20041;-21
2022/02/18 06:51:27;;;;;;;2.85;1.02;;;;;;;10.28;44.75;99809.47;5047091;28;20636;-21
2022/02/18 06:53:53;;;;;;;1.20;0.75;;;;;;;10.37;45.20;99824.16;5046960;28;20044;-21
2022/02/18 06:56:18;;;;;;;3.03;0.80;;;;;;;10.23;44.17;99822.63;5047187;28;20028;-21
2022/02/18 06:58:44;;;;;;;0.68;0.40;;;;;;;10.21;43.66;99833.50;5046844;28;20045;-21
2022/02/18 07:01:09;;;;;;;4.53;1.05;;;;;;;10.28;43.67;99836.13;5046886;28;20065;-21
2022/02/18 07:03:35;;;;;;;3.63;1.13;;;;;;;10.35;43.71;99833.41;5047133;28;20029;-21
2022/02/18 07:06:03;;;;;;;1.08;0.68;;;;;;;10.57;43.46;99837.25;5046908;28;20056;-21
2022/02/18 07:08:29;;;;;;;7.15;0.90;;;;;;;11.00;43.17;99835.44;5046976;28;20025;-21
2022/02/18 07:10:55;;;;;;;1.33;0.68;;;;;;;11.30;41.98;99845.25;5047000;28;20111;-21
2022/02/18 07:13:20;;;;;;;4.22;0.90;;;;;;;11.56;42.07;99847.50;5047006;28;20029;-21
2022/02/18 07:15:45;;;;;;;2.50;1.20;;;;;;;11.55;41.41;99851.25;5046669;28;20036;-21
2022/02/18 07:18:11;;;;;;;6.57;1.10;;;;;;;11.44;41.41;99846.69;5031140;28;20029;-21
2022/02/18 07:20:37;;;;;;;5.43;0.75;;;;;;;11.24;41.89;99841.69;5065539;28;20492;-21
2022/02/18 07:23:04;;;;;;;5.50;1.23;;;;;;;11.04;41.77;99820.63;5032775;28;20029;-21
2022/02/18 07:25:30;;;;;;;3.78;1.60;;;;;;;11.12;41.99;99844.31;5065903;28;20098;-21
2022/02/18 07:27:56;;;;;;;1.92;0.90;;;;;;;11.35;41.74;99850.75;5050693;28;20451;-22
2022/02/18 07:30:21;;;;;;;4.93;0.95;;;;;;;11.57;41.59;99851.81;5050204;28;20028;-21
2022/02/18 07:32:50;;;;;;;1.67;0.95;;;;;;;11.76;41.46;99835.69;5050073;28;20036;-21
2022/02/18 07:35:15;;;;;;;3.53;0.75;;;;;;;11.98;41.04;99842.09;5065296;28;20514;-22
2022/02/18 07:37:44;;;;;;;3.30;1.65;;;;;;;11.70;41.04;99809.91;5050225;28;20552;-21
2022/02/18 07:40:13;;;;;;;1.63;1.20;;;;;;;11.83;41.77;99807.00;5065207;28;20033;-21
2022/02/18 07:42:39;;;;;;;1.35;0.70;;;;;;;11.69;41.51;99846.50;5050067;28;20032;-21
2022/02/18 07:45:05;;;;;;;3.08;1.00;;;;;;;11.27;42.05;99809.97;5050062;28;20043;-21
2022/02/18 07:47:31;;;;;;;3.95;1.30;;;;;;;11.29;42.46;99822.28;5049696;28;20044;-21
2022/02/18 07:49:56;;;;;;;3.00;1.10;;;;;;;11.35;42.45;99843.53;5049224;28;20094;-21
2022/02/18 07:52:22;;;;;;;7.18;1.00;;;;;;;11.22;43.05;99841.91;5049897;28;20119;-21
2022/02/18 07:54:47;;;;;;;2.88;0.70;;;;;;;11.23;42.96;99840.03;5065151;28;20411;-21
2022/02/18 07:57:13;;;;;;;4.93;1.60;;;;;;;11.49;43.08;99830.00;5031626;28;20029;-21
2022/02/18 07:59:39;;;;;;;2.17;1.05;;;;;;;11.41;43.01;99850.63;5049200;28;20064;-20
2022/02/18 08:02:05;;;;;;;4.30;1.00;;;;;;;11.58;43.48;99849.97;5064971;28;20028;-21
2022/02/18 08:04:31;;;;;;;2.97;1.30;;;;;;;11.53;42.78;99845.31;5049526;28;20120;-21
2022/02/18 08:06:56;;;;;;;2.92;0.90;;;;;;;11.62;42.91;99846.59;5049729;28;20727;-21
2022/02/18 08:09:22;;;;;;;3.10;1.33;;;;;;;11.74;41.75;99832.44;5031243;28;20099;-21
2022/02/18 08:11:48;;;;;;;3.47;0.98;;;;;;;11.69;41.57;99838.50;5049243;28;20029;-20
2022/02/18 08:14:13;;;;;;;1.83;0.80;;;;;;;11.69;42.08;99851.00;5049331;28;20033;-21
2022/02/18 08:16:39;;;;;;;3.58;0.90;;;;;;;11.84;41.02;99848.69;5048607;28;20075;-20
2022/02/18 08:19:06;;;;;;;4.35;0.70;;;;;;;11.72;39.48;99845.22;5031186;28;20048;-20
2022/02/18 08:21:32;;;;;;;3.53;1.90;;;;;;;11.73;39.30;99845.00;5049238;28;20451;-21
2022/02/18 08:23:57;;;;;;;1.70;0.88;;;;;;;11.85;37.74;99831.63;5049223;28;20037;-21
2022/02/18 08:26:23;;;;;;;3.53;0.98;;;;;;;11.91;37.52;99844.09;5049287;28;20052;-20
2022/02/18 08:28:48;;;;;;;1.75;0.65;;;;;;;11.89;36.45;99806.13;5030466;28;20551;-20
2022/02/18 08:31:14;;;;;;;2.95;0.80;;;;;;;12.04;36.52;99811.78;5049009;28;20468;-20
2022/02/18 08:33:39;;;;;;;1.58;0.77;;;;;;;12.23;36.51;99819.66;5048761;28;20029;-21
2022/02/18 08:36:08;;;;;;;2.25;0.82;;;;;;;12.37;35.77;99834.38;5049200;28;20461;-21
2022/02/18 08:38:34;;;;;;;1.38;0.77;;;;;;;12.26;35.71;99837.91;5048878;28;20543;-20
2022/02/18 08:40:59;;;;;;;2.28;0.88;;;;;;;12.45;34.01;99842.03;5048883;28;20116;-21
2022/02/18 08:43:25;;;;;;;4.57;1.48;;;;;;;12.40;34.49;99849.97;5048930;28;20040;-20
2022/02/18 09:12:46;;;;;;;5.22;1.25;;;;;;;12.70;33.13;99873.00;4787987;27;8325387;-21
2022/02/18 09:15:13;;;;;;;2.75;0.82;;;;;;;13.01;32.20;99876.28;5084792;28;20040;-21
2022/02/18 09:17:40;;;;;;;3.85;0.88;;;;;;;12.99;32.51;99862.31;5084474;28;20033;-21
2022/02/18 09:20:07;;;;;;;1.98;0.65;;;;;;;13.02;32.05;99857.31;5084880;28;20054;-20
2022/02/18 09:22:32;;;;;;;4.60;1.23;;;;;;;12.99;31.21;99884.53;5084666;28;20518;-20
2022/02/18 09:24:58;;;;;;;1.95;0.65;;;;;;;12.93;32.39;99890.03;5084656;28;20024;-21
2022/02/18 09:27:23;;;;;;;2.75;0.57;;;;;;;13.08;32.26;99871.59;5084575;28;20040;-23
2022/02/18 09:29:49;;;;;;;1.00;0.60;;;;;;;13.24;31.80;99868.16;5084573;28;20027;-21
2022/02/18 09:32:15;;;;;;;3.67;0.77;;;;;;;13.51;32.49;99880.94;5084283;28;20457;-20
2022/02/18 09:34:40;;;;;;;2.30;0.70;;;;;;;13.49;30.39;99883.06;5083862;28;20039;-20
2022/02/18 09:37:06;;;;;;;3.92;1.00;;;;;;;13.31;30.33;99896.66;5084687;28;20036;-21
2022/02/18 09:39:31;;;;;;;2.55;0.52;;;;;;;13.33;29.66;99895.38;5084425;28;20600;-21
2022/02/18 09:41:57;;;;;;;2.67;0.93;;;;;;;13.47;30.08;99869.09;5082954;28;20717;-20
2022/02/18 09:44:25;;;;;;;1.80;0.80;;;;;;;13.55;29.66;99897.34;5083936;28;20479;-21
2022/02/18 09:46:51;;;;;;;2.73;0.57;;;;;;;13.68;29.42;99885.50;5083700;28;20465;-21
2022/02/18 09:49:16;;;;;;;1.52;0.77;;;;;;;13.52;29.62;99887.91;5084242;28;20036;-21
2022/02/18 09:51:41;;;;;;;3.03;0.77;;;;;;;13.51;29.31;99875.59;5084151;28;20090;-21
2022/02/18 09:54:07;;;;;;;3.47;0.88;;;;;;;13.77;28.70;99884.03;5084102;28;20036;-21
2022/02/18 09:56:33;;;;;;;7.93;3.10;;;;;;;13.74;28.82;99871.13;5083860;28;20043;-22
2022/02/18 09:59:03;;;;;;;4.28;0.73;;;;;;;13.98;28.43;99869.88;5084087;28;20039;-22
2022/02/18 10:01:30;;;;;;;3.42;0.75;;;;;;;13.84;27.58;99871.28;5082426;28;20550;-22
2022/02/18 10:03:58;;;;;;;4.38;1.13;;;;;;;14.25;27.99;99863.81;5065863;28;20401;-21
2022/02/18 10:06:27;;;;;;;7.57;2.63;;;;;;;14.30;28.05;99861.19;5083889;28;20118;-21
2022/02/18 10:08:53;;;;;;;6.88;2.30;;;;;;;13.95;27.29;99858.84;5083868;28;20428;-22
2022/02/18 10:11:19;;;;;;;5.18;2.58;;;;;;;14.08;27.57;99869.22;5090154;28;20503;-21
2022/02/18 10:13:45;;;;;;;4.78;2.83;;;;;;;14.01;27.20;99847.13;5104050;28;20044;-21
2022/02/18 10:16:18;;;;;;;4.20;0.90;;;;;;;14.24;26.67;99872.91;5103071;28;20038;-21
2022/02/18 10:18:53;;;;;;;1.80;0.90;;;;;;;14.27;28.09;99850.97;5103886;28;20046;-21
2022/02/18 10:21:29;;;;;;;4.20;1.15;;;;;;;14.61;26.85;99885.78;5103844;28;20027;-21
2022/02/18 10:24:17;;;;;;;5.78;2.58;;;;;;;14.72;27.54;99892.88;5090636;28;20036;-21
2022/02/18 10:26:44;;;;;;;2.38;1.17;;;;;;;14.22;27.10;99870.50;5089881;28;20040;-22
2022/02/18 10:29:24;;;;;;;4.68;1.90;;;;;;;14.18;27.25;99865.84;5090248;28;20028;-21
2022/02/18 10:32:13;;;;;;;3.42;1.08;;;;;;;14.43;27.86;99865.41;5090189;28;20016;-21
2022/02/18 10:34:58;;;;;;;1.08;0.52;;;;;;;14.70;26.15;99868.16;5072015;28;20107;-22
2022/02/18 10:37:25;;;;;;;3.25;0.50;;;;;;;14.81;26.28;99867.22;5090053;28;20097;-21
2022/02/18 10:39:50;;;;;;;1.70;0.73;;;;;;;14.67;25.50;99833.78;5090070;28;20032;-21
2022/02/18 10:42:16;;;;;;;3.33;1.00;;;;;;;14.91;25.23;99846.91;5090066;28;20055;-21
2022/02/18 10:44:42;;;;;;;2.30;0.70;;;;;;;14.49;25.41;99858.22;5089707;28;20024;-21
2022/02/18 10:47:19;;;;;;;4.90;1.20;;;;;;;14.74;26.28;99845.13;5071577;28;20775;-21
2022/02/18 10:49:45;;;;;;;1.95;0.80;;;;;;;14.84;26.18;99858.66;5090158;28;20114;-21
2022/02/18 10:52:17;;;;;;;3.47;0.75;;;;;;;15.04;26.76;99854.56;5089668;28;20085;-21
2022/02/18 10:54:45;;;;;;;3.10;0.82;;;;;;;14.86;26.58;99824.31;5089664;28;20032;-21
2022/02/18 10:57:21;;;;;;;2.92;0.68;;;;;;;15.10;25.93;99863.47;5089677;28;20037;-21
2022/02/18 10:59:47;;;;;;;4.00;1.33;;;;;;;15.20;25.58;99842.06;5089336;28;20028;-22
2022/02/18 11:02:13;;;;;;;2.13;0.60;;;;;;;15.01;25.21;99828.22;5089564;28;20036;-21
2022/02/18 11:04:39;;;;;;;3.25;1.15;;;;;;;15.45;26.06;99826.19;5089714;28;20043;-21
2022/02/18 11:07:14;;;;;;;1.05;0.60;;;;;;;15.06;25.85;99847.06;5089338;28;20029;-21
2022/02/18 11:09:43;;;;;;;4.00;0.90;;;;;;;15.16;25.95;99830.22;5089616;28;20533;-21
2022/02/18 11:12:10;;;;;;;2.85;0.70;;;;;;;15.86;26.73;99844.53;5089350;28;20136;-21
2022/02/18 11:14:37;;;;;;;2.38;0.65;;;;;;;15.84;25.04;99830.53;5089094;28;20665;-22
2022/02/18 11:17:03;;;;;;;3.92;1.00;;;;;;;15.81;25.71;99852.53;5071466;28;20040;-21
2022/02/18 11:19:28;;;;;;;2.20;0.75;;;;;;;16.17;25.77;99850.09;5089375;28;20046;-22
2022/02/18 11:21:54;;;;;;;2.65;0.90;;;;;;;16.18;25.01;99846.31;5089329;28;20035;-21
2022/02/18 11:24:21;;;;;;;2.72;0.70;;;;;;;16.29;24.59;99845.31;5089422;28;20114;-21
2022/02/18 11:26:46;;;;;;;5.22;1.00;;;;;;;16.44;25.14;99829.19;5088979;28;20054;-20
2022/02/18 11:29:12;;;;;;;1.15;0.40;;;;;;;16.28;24.34;99824.81;5070973;28;20470;-21
2022/02/18 11:31:39;;;;;;;1.80;0.60;;;;;;;15.86;25.37;99844.53;5089223;28;20028;-21
2022/02/18 11:34:33;;;;;;;2.85;0.63;;;;;;;15.82;24.92;99846.91;5053460;28;20081;-21
2022/02/18 11:37:08;;;;;;;2.72;0.77;;;;;;;15.98;24.36;99850.50;5085822;28;20044;-22
2022/02/18 11:40:11;;;;;;;3.15;1.00;;;;;;;16.22;24.02;99850.94;5088912;28;20028;-21
2022/02/18 11:42:40;;;;;;;2.03;0.82;;;;;;;16.44;22.05;99844.56;5088662;28;20027;-21
2022/02/18 11:45:15;;;;;;;1.38;0.50;;;;;;;16.52;21.21;99844.03;5088848;28;20024;-21
2022/02/18 11:47:41;;;;;;;2.92;0.40;;;;;;;16.33;21.11;99832.94;5070386;28;20512;-22
2022/02/18 11:50:09;;;;;;;2.35;0.55;;;;;;;16.62;20.78;99832.50;5088910;28;20024;-21
2022/02/18 11:52:40;;;;;;;2.05;0.70;;;;;;;16.45;20.15;99841.59;5088341;28;20024;-22
2022/02/18 11:55:47;;;;;;;8.35;2.05;;;;;;;15.76;20.24;99841.78;5088785;28;20026;-21